createdAt,value
2023-02-18T00:00:14.180Z,11.40
2023-02-18T00:02:43.943Z,10.70
2023-02-18T00:05:12.564Z,11.33
2023-02-18T00:07:41.779Z,12.33
2023-02-18T00:10:13.412Z,11.80
2023-02-18T00:12:41.835Z,10.57
2023-02-18T00:15:10.963Z,11.10
2023-02-18T00:17:39.161Z,10.43
2023-02-18T00:20:09.976Z,10.17
2023-02-18T00:22:38.173Z,10.83
2023-02-18T00:25:06.830Z,10.50
2023-02-18T00:27:35.072Z,11.53
2023-02-18T00:30:05.952Z,10.43
2023-02-18T00:32:35.915Z,11.53
2023-02-18T00:35:04.711Z,11.07
2023-02-18T00:37:35.481Z,10.90
2023-02-18T00:40:04.029Z,10.20
2023-02-18T00:42:32.372Z,8.80
2023-02-18T00:45:00.687Z,9.50
2023-02-18T00:47:28.898Z,10.60
2023-02-18T00:49:57.130Z,11.00
2023-02-18T00:52:25.414Z,11.87
2023-02-18T00:54:55.047Z,12.60
2023-02-18T00:57:23.453Z,11.77
2023-02-18T00:59:51.786Z,10.63
2023-02-18T01:02:20.059Z,10.40
2023-02-18T01:04:48.443Z,9.63
2023-02-18T01:07:16.798Z,9.10
2023-02-18T01:09:45.422Z,9.97
2023-02-18T01:12:16.649Z,9.60
2023-02-18T01:14:45.069Z,8.90
2023-02-18T01:17:13.326Z,8.50
2023-02-18T01:19:41.695Z,8.80
2023-02-18T01:22:09.958Z,6.80
2023-02-18T01:24:38.528Z,8.37
2023-02-18T01:27:06.827Z,8.33
2023-02-18T01:29:37.450Z,8.20
2023-02-18T01:32:05.871Z,7.20
2023-02-18T01:34:34.236Z,7.20
2023-02-18T01:37:02.484Z,6.67
2023-02-18T01:39:30.723Z,7.30
2023-02-18T01:41:59.049Z,6.90
2023-02-18T01:44:29.470Z,6.70
2023-02-18T01:46:59.128Z,6.27
2023-02-18T01:49:29.706Z,7.10
2023-02-18T01:52:01.463Z,6.60
2023-02-18T01:54:34.354Z,6.07
2023-02-18T01:57:05.095Z,5.67
2023-02-18T01:59:36.153Z,5.23
2023-02-18T02:02:06.204Z,6.13
2023-02-18T02:04:34.642Z,6.70
2023-02-18T02:07:04.191Z,5.90
2023-02-18T02:09:33.135Z,6.50
2023-02-18T02:12:18.276Z,5.87
2023-02-18T02:15:11.548Z,5.97
2023-02-18T02:17:46.890Z,5.80
2023-02-18T02:21:00.714Z,5.87
2023-02-18T02:23:43.020Z,5.70
2023-02-18T02:26:42.394Z,7.67
2023-02-18T02:29:43.965Z,7.07
2023-02-18T02:32:34.375Z,6.93
2023-02-18T02:35:04.840Z,7.57
2023-02-18T02:37:37.961Z,6.73
2023-02-18T02:40:14.717Z,6.43
2023-02-18T02:42:48.973Z,6.77
2023-02-18T02:45:24.413Z,6.10
2023-02-18T02:47:58.078Z,5.80
2023-02-18T02:50:30.444Z,5.77
2023-02-18T02:53:01.631Z,5.40
2023-02-18T02:55:29.952Z,5.00
2023-02-18T02:57:58.912Z,5.90
2023-02-18T03:00:42.707Z,7.40
2023-02-18T03:03:32.161Z,6.40
2023-02-18T03:06:26.728Z,5.67
2023-02-18T03:09:01.813Z,6.90
2023-02-18T03:11:32.778Z,6.10
2023-02-18T03:14:08.844Z,5.87
2023-02-18T03:16:46.862Z,5.77
2023-02-18T03:19:20.430Z,5.60
2023-02-18T03:21:53.818Z,6.20
2023-02-18T03:24:25.859Z,5.83
2023-02-18T03:26:57.678Z,5.40
2023-02-18T03:29:27.527Z,5.60
2023-02-18T03:31:58.821Z,5.67
2023-02-18T03:34:30.349Z,5.97
2023-02-18T03:37:01.430Z,5.00
2023-02-18T03:39:31.490Z,5.30
2023-02-18T03:41:59.901Z,6.20
2023-02-18T03:44:28.238Z,5.60
2023-02-18T03:46:56.469Z,5.60
2023-02-18T03:49:24.778Z,5.03
2023-02-18T03:51:52.985Z,5.87
2023-02-18T03:54:22.690Z,6.27
2023-02-18T03:56:51.034Z,6.10
2023-02-18T03:59:19.328Z,6.27
2023-02-18T04:01:47.658Z,5.57
2023-02-18T04:04:16.064Z,7.27
2023-02-18T04:06:44.279Z,6.53
2023-02-18T04:09:12.652Z,6.20
2023-02-18T04:11:42.470Z,7.63
2023-02-18T04:14:11.721Z,5.97
2023-02-18T04:16:40.124Z,8.20
2023-02-18T04:19:08.954Z,18.33
2023-02-18T04:21:37.322Z,10.03
2023-02-18T04:24:05.802Z,8.70
2023-02-18T04:26:34.065Z,9.43
2023-02-18T04:29:03.794Z,6.77
2023-02-18T04:31:32.228Z,6.17
2023-02-18T04:34:00.542Z,6.10
2023-02-18T04:36:28.941Z,6.03
2023-02-18T04:38:57.175Z,5.87
2023-02-18T04:41:25.466Z,5.90
2023-02-18T04:43:53.748Z,5.43
2023-02-18T04:46:25.357Z,5.60
2023-02-18T04:48:53.574Z,7.03
2023-02-18T04:51:21.921Z,4.80
2023-02-18T04:53:50.259Z,6.27
2023-02-18T04:56:18.542Z,5.83
2023-02-18T04:58:46.772Z,5.50
2023-02-18T05:01:15.107Z,5.77
2023-02-18T05:03:46.017Z,6.00
2023-02-18T05:06:14.343Z,4.93
2023-02-18T05:08:42.593Z,5.43
2023-02-18T05:11:11.195Z,4.20
2023-02-18T05:13:39.379Z,4.63
2023-02-18T05:16:08.312Z,4.50
2023-02-18T05:18:36.847Z,4.80
2023-02-18T05:21:07.048Z,5.00
2023-02-18T05:23:35.422Z,4.20
2023-02-18T05:26:03.875Z,4.93
2023-02-18T05:28:32.183Z,4.60
2023-02-18T05:31:00.724Z,5.40
2023-02-18T05:33:29.236Z,5.67
2023-02-18T05:35:57.481Z,4.80
2023-02-18T05:38:27.169Z,5.47
2023-02-18T05:40:56.269Z,4.50
2023-02-18T05:43:24.506Z,6.07
2023-02-18T05:45:52.762Z,5.27
2023-02-18T05:48:21.072Z,4.60
2023-02-18T05:50:49.300Z,6.80
2023-02-18T05:53:17.761Z,5.33
2023-02-18T05:55:47.390Z,5.43
2023-02-18T05:58:17.145Z,5.87
2023-02-18T06:00:45.398Z,5.90
2023-02-18T06:03:13.596Z,4.93
2023-02-18T06:05:42.492Z,5.80
2023-02-18T06:08:10.858Z,5.10
2023-02-18T06:10:41.596Z,5.80
2023-02-18T06:13:11.394Z,6.53
2023-02-18T06:15:40.361Z,4.83
2023-02-18T06:18:08.761Z,4.80
2023-02-18T06:20:37.153Z,6.33
2023-02-18T06:23:07.055Z,6.63
2023-02-18T06:25:35.919Z,7.70
2023-02-18T06:28:04.254Z,5.80
2023-02-18T06:30:34.113Z,5.73
2023-02-18T06:33:04.333Z,6.37
2023-02-18T06:35:33.673Z,7.33
2023-02-18T06:38:02.181Z,6.70
2023-02-18T06:40:30.520Z,7.97
2023-02-18T06:42:58.821Z,6.17
2023-02-18T06:45:27.078Z,6.33
2023-02-18T06:47:56.724Z,7.67
2023-02-18T06:50:25.105Z,8.63
2023-02-18T06:52:53.381Z,7.73
2023-02-18T06:55:22.874Z,7.30
2023-02-18T06:57:51.155Z,11.20
2023-02-18T07:00:22.885Z,6.87
2023-02-18T07:02:51.118Z,6.17
2023-02-18T07:05:20.782Z,4.60
2023-02-18T07:07:49.093Z,4.73
2023-02-18T07:10:17.394Z,5.40
2023-02-18T07:12:45.848Z,4.50
2023-02-18T07:15:14.310Z,5.40
2023-02-18T07:17:43.318Z,5.77
2023-02-18T07:20:11.999Z,5.70
2023-02-18T07:22:41.972Z,8.23
2023-02-18T07:25:10.317Z,5.30
2023-02-18T07:27:39.724Z,6.03
2023-02-18T07:30:09.700Z,7.60
2023-02-18T07:32:38.652Z,5.00
2023-02-18T07:35:08.448Z,5.00
2023-02-18T07:37:36.881Z,7.57
2023-02-18T07:40:09.382Z,6.60
2023-02-18T07:42:37.788Z,5.90
2023-02-18T07:45:06.804Z,8.50
2023-02-18T07:47:35.672Z,4.00
2023-02-18T07:50:04.365Z,6.50
2023-02-18T07:52:32.883Z,4.90
2023-02-18T07:55:02.496Z,4.80
2023-02-18T07:57:33.369Z,3.70
2023-02-18T08:00:01.670Z,3.70
2023-02-18T08:02:30.153Z,3.97
2023-02-18T08:04:58.469Z,5.00
2023-02-18T08:07:26.778Z,3.20
2023-02-18T08:09:59.444Z,5.37
2023-02-18T08:12:27.872Z,4.60
2023-02-18T08:14:58.125Z,4.60
2023-02-18T08:17:27.181Z,5.63
2023-02-18T08:19:56.465Z,5.17
2023-02-18T08:22:25.472Z,6.00
2023-02-18T08:24:56.521Z,5.60
2023-02-18T08:27:31.933Z,6.10
2023-02-18T08:30:01.686Z,7.20
2023-02-18T08:32:31.077Z,6.37
2023-02-18T08:34:59.449Z,5.27
2023-02-18T08:37:27.956Z,5.60
2023-02-18T08:39:56.610Z,5.27
2023-02-18T08:42:25.230Z,5.33
2023-02-18T08:44:56.316Z,6.10
2023-02-18T08:48:16.043Z,5.60
2023-02-18T08:50:20.984Z,5.30
2023-02-18T08:52:49.265Z,5.90
2023-02-18T08:55:21.619Z,5.70
2023-02-18T08:57:50.073Z,6.57
2023-02-18T09:00:18.959Z,5.87
2023-02-18T09:02:49.042Z,5.80
2023-02-18T09:05:17.603Z,5.07
2023-02-18T09:07:46.205Z,6.50
2023-02-18T09:10:14.449Z,6.50
2023-02-18T09:12:43.946Z,6.60
2023-02-18T09:15:13.467Z,6.37
2023-02-18T09:17:42.001Z,6.87
2023-02-18T09:20:12.471Z,6.03
2023-02-18T09:22:40.906Z,5.60
2023-02-18T09:25:09.615Z,7.10
2023-02-18T09:27:38.175Z,6.63
2023-02-18T09:30:09.118Z,6.70
2023-02-18T09:32:38.713Z,6.43
2023-02-18T09:35:08.749Z,7.23
2023-02-18T09:37:40.120Z,6.67
2023-02-18T09:40:09.610Z,7.00
2023-02-18T09:42:37.952Z,7.80
2023-02-18T09:45:09.092Z,6.80
2023-02-18T09:47:39.530Z,8.30
2023-02-18T09:50:12.765Z,7.63
2023-02-18T09:52:43.354Z,6.83
2023-02-18T09:55:23.063Z,7.03
2023-02-18T09:57:52.881Z,7.57
2023-02-18T10:00:24.298Z,7.00
2023-02-18T10:02:58.082Z,7.00
2023-02-18T10:05:29.589Z,6.80
2023-02-18T10:08:01.763Z,6.30
2023-02-18T10:10:37.511Z,6.80
2023-02-18T10:13:08.519Z,7.57
2023-02-18T10:15:37.790Z,7.00
2023-02-18T10:18:09.567Z,7.10
2023-02-18T10:20:38.988Z,7.13
2023-02-18T10:23:09.764Z,7.17
2023-02-18T10:25:42.854Z,7.27
2023-02-18T10:28:11.622Z,6.63
2023-02-18T10:30:43.658Z,6.10
2023-02-18T10:33:23.854Z,5.83
2023-02-18T10:35:55.206Z,6.10
2023-02-18T10:38:33.735Z,5.30
2023-02-18T10:41:07.998Z,6.10
2023-02-18T10:43:43.266Z,6.33
2023-02-18T10:46:21.900Z,6.27
2023-02-18T10:49:00.675Z,7.47
2023-02-18T10:51:31.477Z,7.07
2023-02-18T10:54:01.293Z,6.47
2023-02-18T10:56:38.995Z,5.83
2023-02-18T10:59:12.630Z,5.83
2023-02-18T11:01:42.017Z,6.10
2023-02-18T11:04:16.451Z,5.20
2023-02-18T11:06:47.059Z,5.43
2023-02-18T11:09:31.135Z,6.17
2023-02-18T11:12:09.050Z,6.27
2023-02-18T11:14:46.124Z,7.63
2023-02-18T11:17:21.832Z,7.43
2023-02-18T11:20:00.482Z,7.80
2023-02-18T11:22:31.824Z,7.53
2023-02-18T11:25:07.307Z,7.97
2023-02-18T11:27:43.077Z,8.57
2023-02-18T11:30:20.685Z,7.30
2023-02-18T11:32:51.090Z,7.73
2023-02-18T11:35:21.300Z,8.17
2023-02-18T11:37:49.753Z,8.17
2023-02-18T11:40:24.781Z,8.37
2023-02-18T11:42:53.380Z,8.00
2023-02-18T11:45:29.974Z,7.70
2023-02-18T11:48:02.281Z,8.87
2023-02-18T11:50:33.651Z,7.70
2023-02-18T11:53:02.099Z,8.27
2023-02-18T11:55:32.926Z,8.23
2023-02-18T11:58:03.859Z,7.83
2023-02-18T12:00:39.188Z,6.83
2023-02-18T12:03:10.375Z,8.23
2023-02-18T12:05:38.995Z,8.00
2023-02-18T12:08:12.251Z,8.23
2023-02-18T12:10:44.643Z,9.37
2023-02-18T12:13:23.822Z,6.83
2023-02-18T12:16:05.237Z,6.93
2023-02-18T12:18:46.198Z,7.37
2023-02-18T12:21:42.979Z,7.00
2023-02-18T12:24:21.206Z,7.20
2023-02-18T12:26:59.677Z,7.37
2023-02-18T12:29:49.292Z,6.97
2023-02-18T12:32:29.842Z,6.33
2023-02-18T12:35:09.446Z,7.30
2023-02-18T12:38:01.195Z,6.73
2023-02-18T12:40:47.941Z,6.93
2023-02-18T12:43:26.672Z,5.60
2023-02-18T12:46:29.375Z,6.40
2023-02-18T12:49:17.628Z,6.03
2023-02-18T12:51:56.935Z,6.03
2023-02-18T12:55:00.826Z,6.10
2023-02-18T12:57:38.472Z,7.30
2023-02-18T13:00:32.383Z,6.83
2023-02-18T13:03:31.295Z,7.23
2023-02-18T13:06:06.424Z,7.53
2023-02-18T13:08:43.790Z,8.23
2023-02-18T13:11:22.303Z,7.50
2023-02-18T13:13:58.414Z,7.80
2023-02-18T13:16:28.961Z,6.93
2023-02-18T13:19:03.741Z,7.70
2023-02-18T13:21:32.654Z,8.23
2023-02-18T13:24:03.667Z,7.93
2023-02-18T13:26:34.239Z,7.00
2023-02-18T13:29:16.447Z,7.00
2023-02-18T13:32:00.769Z,7.47
2023-02-18T13:34:34.817Z,8.53
2023-02-18T13:37:09.920Z,8.10
2023-02-18T13:39:40.540Z,8.10
2023-02-18T13:42:31.863Z,7.60
2023-02-18T13:45:29.460Z,8.53
2023-02-18T13:48:00.585Z,8.37
2023-02-18T13:50:34.409Z,8.17
2023-02-18T13:53:28.295Z,9.20
2023-02-18T13:56:03.575Z,8.53
2023-02-18T13:58:38.119Z,8.77
2023-02-18T14:01:16.773Z,8.27
2023-02-18T14:04:02.763Z,7.53
2023-02-18T14:06:45.259Z,8.37
2023-02-18T14:09:38.715Z,8.67
2023-02-18T14:12:41.449Z,7.57
2023-02-18T14:15:51.676Z,8.50
2023-02-18T14:18:32.230Z,7.57
2023-02-18T14:21:21.199Z,8.00
2023-02-18T14:24:06.237Z,9.10
2023-02-18T14:26:39.462Z,8.20
2023-02-18T14:29:16.289Z,9.07
2023-02-18T14:31:56.325Z,8.40
2023-02-18T14:35:04.784Z,7.87
2023-02-18T14:37:48.256Z,7.97
2023-02-18T14:40:28.476Z,9.17
2023-02-18T14:43:03.870Z,8.97
2023-02-18T14:45:42.133Z,9.50
2023-02-18T14:48:28.994Z,8.23
2023-02-18T14:51:00.743Z,9.97
2023-02-18T14:53:32.277Z,9.33
2023-02-18T14:56:06.356Z,9.30
2023-02-18T14:58:38.581Z,9.63
2023-02-18T15:01:19.712Z,9.20
2023-02-18T15:03:49.427Z,9.50
2023-02-18T15:06:35.000Z,10.03
2023-02-18T15:09:15.635Z,9.93
2023-02-18T15:11:47.469Z,9.20
2023-02-18T15:14:19.671Z,8.90
2023-02-18T15:16:50.265Z,8.43
2023-02-18T15:19:24.412Z,9.00
2023-02-18T15:21:55.254Z,9.37
2023-02-18T15:24:28.351Z,9.63
2023-02-18T15:26:59.091Z,7.73
2023-02-18T15:29:29.484Z,7.87
2023-02-18T15:32:01.117Z,8.93
2023-02-18T15:34:37.387Z,8.20
2023-02-18T15:37:08.970Z,9.40
2023-02-18T15:39:41.034Z,8.20
2023-02-18T15:42:14.309Z,8.90
2023-02-18T15:44:48.273Z,8.73
2023-02-18T15:47:17.958Z,8.87
2023-02-18T15:49:48.932Z,9.17
2023-02-18T15:52:17.933Z,8.27
2023-02-18T15:54:48.566Z,8.87
2023-02-18T15:57:18.682Z,8.37
2023-02-18T15:59:53.982Z,8.53
2023-02-18T16:02:24.992Z,7.63
2023-02-18T16:04:58.252Z,9.60
2023-02-18T16:07:29.629Z,10.30
2023-02-18T16:10:18.810Z,9.60
2023-02-18T16:12:50.861Z,9.53
2023-02-18T16:15:28.320Z,8.57
2023-02-18T16:17:59.088Z,9.20
2023-02-18T16:20:31.572Z,8.73
2023-02-18T16:23:03.949Z,8.70
2023-02-18T16:25:45.128Z,9.07
2023-02-18T16:28:17.334Z,9.33
2023-02-18T16:30:46.900Z,9.03
2023-02-18T16:33:16.689Z,8.80
2023-02-18T16:35:50.354Z,9.13
2023-02-18T16:38:30.144Z,9.77
2023-02-18T16:41:04.003Z,9.57
2023-02-18T16:43:33.467Z,9.30
2023-02-18T16:46:10.467Z,11.73
2023-02-18T16:48:41.984Z,11.07
2023-02-18T16:51:15.807Z,9.50
2023-02-18T16:53:44.648Z,10.03
2023-02-18T16:56:22.120Z,9.90
2023-02-18T16:58:52.688Z,10.33
2023-02-18T17:01:27.507Z,10.23
2023-02-18T17:03:57.693Z,10.67
2023-02-18T17:06:27.385Z,9.37
2023-02-18T17:08:57.782Z,9.53
2023-02-18T17:11:33.148Z,9.23
2023-02-18T17:14:06.617Z,33.47
2023-02-18T17:16:37.099Z,14.00
2023-02-18T17:19:07.981Z,13.10
2023-02-18T17:21:41.818Z,11.80
2023-02-18T17:24:15.085Z,11.00
2023-02-18T17:26:46.040Z,11.80
2023-02-18T17:29:21.317Z,12.43
2023-02-18T17:31:55.269Z,14.30
2023-02-18T17:34:31.527Z,14.47
2023-02-18T17:37:02.613Z,15.10
2023-02-18T17:39:31.650Z,15.77
2023-02-18T17:42:03.776Z,15.33
2023-02-18T17:44:34.739Z,15.30
2023-02-18T17:47:04.568Z,16.43
2023-02-18T17:49:34.570Z,17.03
2023-02-18T17:52:08.776Z,15.90
2023-02-18T17:54:40.800Z,14.80
2023-02-18T17:57:12.251Z,14.17
2023-02-18T17:59:43.256Z,12.20
2023-02-18T18:02:26.918Z,14.50
2023-02-18T18:04:56.775Z,13.37
2023-02-18T18:07:27.702Z,12.57
2023-02-18T18:09:58.558Z,13.90
2023-02-18T18:12:33.387Z,12.73
2023-02-18T18:15:04.975Z,13.57
2023-02-18T18:17:37.440Z,12.97
2023-02-18T18:20:09.335Z,13.70
2023-02-18T18:22:40.334Z,12.30
2023-02-18T18:25:19.026Z,15.03
2023-02-18T18:27:56.636Z,14.77
2023-02-18T18:30:28.512Z,14.17
2023-02-18T18:32:59.510Z,15.07
2023-02-18T18:35:36.540Z,13.87
2023-02-18T18:38:06.395Z,15.30
2023-02-18T18:40:55.048Z,16.70
2023-02-18T18:43:41.409Z,15.43
2023-02-18T18:46:12.526Z,15.50
2023-02-18T18:48:43.029Z,16.50
2023-02-18T18:51:16.484Z,15.37
2023-02-18T18:53:47.943Z,13.50
2023-02-18T18:56:19.094Z,13.67
2023-02-18T18:58:51.069Z,13.17
2023-02-18T19:01:30.793Z,14.30
2023-02-18T19:04:02.214Z,13.70
2023-02-18T19:06:36.973Z,13.53
2023-02-18T19:09:10.667Z,12.77
2023-02-18T19:11:42.719Z,16.13
2023-02-18T19:14:14.755Z,13.90
2023-02-18T19:16:46.093Z,13.90
2023-02-18T19:19:17.390Z,11.70
2023-02-18T19:21:47.309Z,12.90
2023-02-18T19:24:24.712Z,15.83
2023-02-18T19:26:55.802Z,15.70
2023-02-18T19:29:39.056Z,12.63
2023-02-18T19:32:11.719Z,11.50
2023-02-18T19:34:43.229Z,13.10
2023-02-18T19:37:13.319Z,16.43
2023-02-18T19:39:46.189Z,14.40
2023-02-18T19:42:17.064Z,14.60
2023-02-18T19:44:49.846Z,14.90
2023-02-18T19:47:19.892Z,13.77
2023-02-18T19:49:53.122Z,15.27
2023-02-18T19:52:24.660Z,12.40
2023-02-18T19:55:00.899Z,15.63
2023-02-18T19:57:30.916Z,15.20
2023-02-18T20:00:02.254Z,13.30
2023-02-18T20:02:43.232Z,15.23
2023-02-18T20:05:20.169Z,14.00
2023-02-18T20:07:51.375Z,16.40
2023-02-18T20:10:22.282Z,13.10
2023-02-18T20:12:54.873Z,14.23
2023-02-18T20:15:28.329Z,16.00
2023-02-18T20:18:00.144Z,10.80
2023-02-18T20:20:29.060Z,16.30
2023-02-18T20:22:58.886Z,10.00
2023-02-18T20:25:29.809Z,17.80
2023-02-18T20:28:01.828Z,14.20
2023-02-18T20:30:35.079Z,8.57
2023-02-18T20:33:06.994Z,14.17
2023-02-18T20:35:37.233Z,13.80
2023-02-18T20:38:09.634Z,13.90
2023-02-18T20:40:39.718Z,12.90
2023-02-18T20:43:09.638Z,16.23
2023-02-18T20:45:43.332Z,13.93
2023-02-18T20:48:18.721Z,15.00
2023-02-18T20:50:59.015Z,15.40
2023-02-18T20:53:32.629Z,14.67
2023-02-18T20:56:02.812Z,22.07
2023-02-18T20:58:34.721Z,13.50
2023-02-18T21:01:07.963Z,12.87
2023-02-18T21:03:48.089Z,14.33
2023-02-18T21:06:26.576Z,15.00
2023-02-18T21:08:57.276Z,12.60
2023-02-18T21:11:28.503Z,12.13
2023-02-18T21:13:58.816Z,10.80
2023-02-18T21:16:39.194Z,11.43
2023-02-18T21:19:10.364Z,12.97
2023-02-18T21:21:47.286Z,12.20
2023-02-18T21:24:17.120Z,12.97
2023-02-18T21:26:48.537Z,11.70
2023-02-18T21:29:18.124Z,12.07
2023-02-18T21:31:51.512Z,10.90
2023-02-18T21:34:23.181Z,11.97
2023-02-18T21:36:52.286Z,13.60
2023-02-18T21:39:23.971Z,14.00
2023-02-18T21:41:54.047Z,14.37
2023-02-18T21:44:32.867Z,13.23
2023-02-18T21:47:13.316Z,14.70
2023-02-18T21:49:43.183Z,11.60
2023-02-18T21:52:12.903Z,12.23
2023-02-18T21:54:45.658Z,13.17
2023-02-18T21:57:17.988Z,11.87
2023-02-18T21:59:47.315Z,10.77
2023-02-18T22:02:19.087Z,11.90
2023-02-18T22:04:50.853Z,10.60
2023-02-18T22:07:20.383Z,11.63
2023-02-18T22:09:50.843Z,11.30
2023-02-18T22:12:19.749Z,10.73
2023-02-18T22:14:50.011Z,11.53
2023-02-18T22:17:21.636Z,11.10
2023-02-18T22:19:50.087Z,11.00
2023-02-18T22:22:18.479Z,7.67
2023-02-18T22:24:46.837Z,10.50
2023-02-18T22:27:15.156Z,11.50
2023-02-18T22:29:43.643Z,11.73
2023-02-18T22:32:12.096Z,12.37
2023-02-18T22:34:42.188Z,11.80
2023-02-18T22:37:10.659Z,12.43
2023-02-18T22:39:39.246Z,12.10
2023-02-18T22:42:07.526Z,12.73
2023-02-18T22:44:35.835Z,13.90
2023-02-18T22:47:04.138Z,12.30
2023-02-18T22:49:32.476Z,13.13
2023-02-18T22:52:02.971Z,12.20
2023-02-18T22:54:31.235Z,12.23
2023-02-18T22:56:59.660Z,13.90
2023-02-18T22:59:27.939Z,13.07
2023-02-18T23:01:56.247Z,15.80
2023-02-18T23:04:24.680Z,17.30
2023-02-18T23:06:53.100Z,17.43
2023-02-18T23:09:24.368Z,19.50
2023-02-18T23:11:56.368Z,18.10
2023-02-18T23:14:24.860Z,18.27
2023-02-18T23:17:14.206Z,16.20
2023-02-18T23:19:44.046Z,16.33
2023-02-18T23:22:14.322Z,16.30
2023-02-18T23:24:45.945Z,16.90
2023-02-18T23:27:16.025Z,14.73
2023-02-18T23:29:44.523Z,16.80
2023-02-18T23:32:12.937Z,15.60
2023-02-18T23:34:41.421Z,13.10
2023-02-18T23:37:09.810Z,14.03
2023-02-18T23:39:38.185Z,14.07
2023-02-18T23:42:09.016Z,14.67
2023-02-18T23:44:37.401Z,13.30
2023-02-18T23:47:06.370Z,12.13
2023-02-18T23:49:35.340Z,13.23
2023-02-18T23:52:03.730Z,11.90
2023-02-18T23:54:32.065Z,11.57
2023-02-18T23:57:00.399Z,11.70
2023-02-18T23:59:30.088Z,10.80
